Hovedside
METAR-TAF:

METAR-TAF

Lufthavner :

Stauning lufthavn

Ringkøbing-Skjern, Danmark

breddegrad: 56-00N, lengdegrad: 008-21E, høyde over havet: 5 m

Gjeldene værobservasjon

Denne rapporten ble laget for 3 timer og 57 minutter siden, klokken 14:50 UTC
Vind 10 kt fra Øst
Temperatur 5°C
Luftfuktighet 81%
Trykk 1030 hPa
Sikt 10 km eller mer
Få skyer i en høyde av 2200 ft

METAR: EKVJ 191450Z 08010KT 9999 FEW022 05/02 Q1030

Tid: 19:47 (18:47 UTC)

Varsel

Denne rapporten ble laget for 6 timer og 48 minutter siden, klokken 11:59 UTC
Varsel gyldig fra 19. klokken 12 UTC til 19. klokken 16 UTC
Vind 18 kt fra Øst-nordøst
Sikt 10 km eller mer
Spredte skyer i en høyde av 2500 ft

TAF: EKVJ 191159Z 1912/1916 06018KT 9999 SCT025

Værobservasjoner og værvarsel for over 4000 flyplasser (METAR- og TAF-rapporter).

Tilgjengelige stasjoner er representert av de røde og gule prikkene på kartet.

Hold musepekeren over prikken for å se navnet på stasjonen.

Klikk så for å se værobservasjoner og -varsler.

For å forandre kartet kan du klikke på den grønne knappen med svart kryss for å zoome inn, på den grønne knappen med strek for å zoome ut, eller på de grønne pilene for å se tilstøtende kart.


METAR-TAF: